Terminal Aerodrome Forecast
Issued by NWS

Home | Current Version | Previous Version | Text Only | Print | Product List | Glossary On
Versions: 1 2 3 4 5 6 7 8 9 10 11 12
732
FTUS46 KSGX 212320
TAFTRM
TAF
KTRM 212320Z 2200/2224 VRB06KT P6SM SKC
     FM220400 33010KT P6SM SKC
     FM220800 VRB05KT P6SM SKC=

USA.gov is the U.S. government's official web portal to all federal, state and local government web resources and services.